createdAt,value
2022-10-22T00:01:54.304Z,14.13
2022-10-22T00:04:23.864Z,18.98
2022-10-22T00:06:50.757Z,16.15
2022-10-22T00:09:17.723Z,17.00
2022-10-22T00:11:44.839Z,17.58
2022-10-22T00:14:12.006Z,17.27
2022-10-22T00:16:38.846Z,15.38
2022-10-22T00:19:06.017Z,17.35
2022-10-22T00:21:32.905Z,16.85
2022-10-22T00:23:59.751Z,18.30
2022-10-22T00:26:27.438Z,13.48
2022-10-22T00:28:54.484Z,13.95
2022-10-22T00:31:21.529Z,20.05
2022-10-22T00:33:48.698Z,20.50
2022-10-22T00:36:16.295Z,13.62
2022-10-22T00:38:43.233Z,16.12
2022-10-22T00:41:10.335Z,14.98
2022-10-22T00:43:59.026Z,18.00
2022-10-22T00:46:26.201Z,15.52
2022-10-22T00:48:53.258Z,15.85
2022-10-22T00:51:22.120Z,17.17
2022-10-22T00:53:53.422Z,19.20
2022-10-22T00:56:20.970Z,16.87
2022-10-22T00:58:50.247Z,16.23
2022-10-22T01:01:21.525Z,19.48
2022-10-22T01:03:49.361Z,16.75
2022-10-22T01:06:24.501Z,13.60
2022-10-22T01:09:30.454Z,16.67
2022-10-22T01:12:21.981Z,16.48
2022-10-22T01:15:17.014Z,15.45
2022-10-22T01:18:01.313Z,15.98
2022-10-22T01:20:39.886Z,10.55
2022-10-22T01:23:31.477Z,20.77
2022-10-22T01:26:00.034Z,21.30
2022-10-22T01:28:50.491Z,11.40
2022-10-22T01:31:18.283Z,12.15
2022-10-22T01:33:46.126Z,24.02
2022-10-22T01:36:14.445Z,14.00
2022-10-22T01:38:41.894Z,13.20
2022-10-22T01:41:08.793Z,11.80
2022-10-22T01:43:35.642Z,13.48
2022-10-22T01:46:05.099Z,16.58
2022-10-22T01:48:45.733Z,16.25
2022-10-22T01:51:27.872Z,15.15
2022-10-22T01:54:05.009Z,18.83
2022-10-22T01:56:41.327Z,22.80
2022-10-22T01:59:29.678Z,19.80
2022-10-22T02:02:24.140Z,17.85
2022-10-22T02:05:17.043Z,19.12
2022-10-22T02:07:50.005Z,18.98
2022-10-22T02:10:17.765Z,20.95
2022-10-22T02:12:46.435Z,17.52
2022-10-22T02:15:14.324Z,19.12
2022-10-22T02:17:42.768Z,27.67
2022-10-22T02:20:16.626Z,21.33
2022-10-22T02:22:43.871Z,18.77
2022-10-22T02:25:11.127Z,20.67
2022-10-22T02:27:42.026Z,21.58
2022-10-22T02:32:53.234Z,16.10
2022-10-22T02:35:22.611Z,19.95
2022-10-22T02:37:50.150Z,22.08
2022-10-22T02:40:17.473Z,16.70
2022-10-22T02:42:46.977Z,15.43
2022-10-22T02:45:13.978Z,15.20
2022-10-22T02:47:40.843Z,19.85
2022-10-22T02:50:10.307Z,22.80
2022-10-22T02:52:37.793Z,18.50
2022-10-22T02:55:05.766Z,27.48
2022-10-22T02:57:33.229Z,18.37
2022-10-22T03:00:00.079Z,19.73
2022-10-22T03:02:26.942Z,18.27
2022-10-22T03:04:54.039Z,18.02
2022-10-22T03:07:20.902Z,25.73
2022-10-22T03:09:47.746Z,35.10
2022-10-22T03:12:14.887Z,26.50
2022-10-22T03:14:41.763Z,39.67
2022-10-22T03:17:08.706Z,16.58
2022-10-22T03:19:35.903Z,17.30
2022-10-22T03:22:06.099Z,20.02
2022-10-22T03:24:46.551Z,20.52
2022-10-22T03:27:15.305Z,17.02
2022-10-22T03:29:42.742Z,21.15
2022-10-22T03:32:09.608Z,15.38
2022-10-22T03:34:36.692Z,22.65
2022-10-22T03:37:03.546Z,16.83
2022-10-22T03:39:32.179Z,20.95
2022-10-22T03:42:02.594Z,19.52
2022-10-22T03:44:32.880Z,16.35
2022-10-22T03:47:02.483Z,19.15
2022-10-22T03:49:29.806Z,18.93
2022-10-22T03:51:56.701Z,16.27
2022-10-22T03:54:23.796Z,15.57
2022-10-22T03:56:50.656Z,41.42
2022-10-22T03:59:17.500Z,15.10
2022-10-22T04:01:44.599Z,18.40
2022-10-22T04:04:11.743Z,20.88
2022-10-22T04:06:38.610Z,19.92
2022-10-22T04:09:05.495Z,12.40
2022-10-22T04:11:32.646Z,16.33
2022-10-22T04:13:59.491Z,13.38
2022-10-22T04:16:30.959Z,15.70
2022-10-22T04:18:58.525Z,14.32
2022-10-22T04:21:25.598Z,18.45
2022-10-22T04:23:53.367Z,15.80
2022-10-22T04:26:20.833Z,18.60
2022-10-22T04:28:49.203Z,18.45
2022-10-22T04:31:23.742Z,15.93
2022-10-22T04:33:55.185Z,20.33
2022-10-22T04:36:22.307Z,19.00
2022-10-22T04:38:53.559Z,15.82
2022-10-22T04:41:26.637Z,17.83
2022-10-22T04:43:54.868Z,21.95
2022-10-22T04:46:22.674Z,17.37
2022-10-22T04:48:51.039Z,19.27
2022-10-22T04:51:20.096Z,15.68
2022-10-22T04:53:47.850Z,21.52
2022-10-22T04:56:21.180Z,16.90
2022-10-22T04:58:49.541Z,19.42
2022-10-22T05:01:22.201Z,21.02
2022-10-22T05:03:50.777Z,16.33
2022-10-22T05:06:17.874Z,20.73
2022-10-22T05:08:44.865Z,27.25
2022-10-22T05:11:16.772Z,20.35
2022-10-22T05:13:44.028Z,24.12
2022-10-22T05:16:11.312Z,21.50
2022-10-22T05:18:39.274Z,21.83
2022-10-22T05:21:10.452Z,16.90
2022-10-22T05:23:38.484Z,29.40
2022-10-22T05:26:07.263Z,25.88
2022-10-22T05:28:34.592Z,20.23
2022-10-22T05:31:01.963Z,25.20
2022-10-22T05:33:29.839Z,22.95
2022-10-22T05:35:57.259Z,31.77
2022-10-22T05:38:24.922Z,20.00
2022-10-22T05:41:03.303Z,23.30
2022-10-22T05:43:30.621Z,17.60
2022-10-22T05:46:02.916Z,23.00
2022-10-22T05:48:30.146Z,23.08
2022-10-22T05:50:57.292Z,21.10
2022-10-22T05:53:24.149Z,20.00
2022-10-22T05:55:51.916Z,21.85
2022-10-22T05:58:19.009Z,19.75
2022-10-22T06:00:45.846Z,34.28
2022-10-22T06:03:12.943Z,28.70
2022-10-22T06:05:39.811Z,20.70
2022-10-22T06:08:06.677Z,24.90
2022-10-22T06:10:33.758Z,25.70
2022-10-22T06:13:01.622Z,21.92
2022-10-22T06:15:28.540Z,23.42
2022-10-22T06:17:55.695Z,18.85
2022-10-22T06:20:22.559Z,16.62
2022-10-22T06:22:49.397Z,20.52
2022-10-22T06:25:24.013Z,17.85
2022-10-22T06:27:51.807Z,19.92
2022-10-22T06:30:18.940Z,22.40
2022-10-22T06:32:45.790Z,22.80
2022-10-22T06:35:12.672Z,23.62
2022-10-22T06:37:40.051Z,25.23
2022-10-22T06:40:07.634Z,24.48
2022-10-22T06:42:34.497Z,29.02
2022-10-22T06:47:33.461Z,26.27
2022-10-22T06:50:00.319Z,20.95
2022-10-22T06:52:27.429Z,18.85
2022-10-22T06:54:54.267Z,18.35
2022-10-22T06:57:21.562Z,20.10
2022-10-22T06:59:48.666Z,23.38
2022-10-22T07:02:15.546Z,27.77
2022-10-22T07:04:42.450Z,19.02
2022-10-22T07:07:09.582Z,24.45
2022-10-22T07:09:36.430Z,27.73
2022-10-22T07:12:03.399Z,29.17
2022-10-22T07:14:33.473Z,37.22
2022-10-22T07:17:00.332Z,25.15
2022-10-22T07:19:29.942Z,31.80
2022-10-22T07:21:57.490Z,35.25
2022-10-22T07:24:24.364Z,29.00
2022-10-22T07:26:51.315Z,21.90
2022-10-22T07:29:18.467Z,26.55
2022-10-22T07:31:45.623Z,32.80
2022-10-22T07:34:12.530Z,22.17
2022-10-22T07:36:39.669Z,27.15
2022-10-22T07:39:06.550Z,24.83
2022-10-22T07:41:33.601Z,21.80
2022-10-22T07:44:00.739Z,25.20
2022-10-22T07:46:28.197Z,19.87
2022-10-22T07:48:55.213Z,19.95
2022-10-22T07:51:22.447Z,26.42
2022-10-22T07:53:49.300Z,22.27
2022-10-22T07:56:16.220Z,20.02
2022-10-22T07:58:43.402Z,21.58
2022-10-22T08:01:10.318Z,21.12
2022-10-22T08:03:37.533Z,21.02
2022-10-22T08:06:04.470Z,15.98
2022-10-22T08:08:31.757Z,24.70
2022-10-22T08:11:01.085Z,21.90
2022-10-22T08:13:30.549Z,18.77
2022-10-22T08:15:59.252Z,15.98
2022-10-22T08:18:26.609Z,26.75
2022-10-22T08:20:53.628Z,23.52
2022-10-22T08:23:24.419Z,27.67
2022-10-22T08:25:54.701Z,26.52
2022-10-22T08:28:22.386Z,28.45
2022-10-22T08:30:49.405Z,20.88
2022-10-22T08:33:16.669Z,19.25
2022-10-22T08:35:48.538Z,22.50
2022-10-22T08:38:15.397Z,23.60
2022-10-22T08:40:42.752Z,23.48
2022-10-22T08:43:21.845Z,24.80
2022-10-22T08:45:51.657Z,22.77
2022-10-22T08:48:36.798Z,18.93
2022-10-22T08:51:03.999Z,20.85
2022-10-22T08:53:37.500Z,23.48
2022-10-22T08:56:04.724Z,20.00
2022-10-22T08:58:57.172Z,29.98
2022-10-22T09:01:34.011Z,23.08
2022-10-22T09:04:14.612Z,19.12
2022-10-22T09:06:44.266Z,33.20
2022-10-22T09:09:15.943Z,24.65
2022-10-22T09:11:49.014Z,21.70
2022-10-22T09:14:18.531Z,24.80
2022-10-22T09:17:10.660Z,25.12
2022-10-22T09:19:49.312Z,30.30
2022-10-22T09:22:46.715Z,19.92
2022-10-22T09:25:21.007Z,22.80
2022-10-22T09:27:49.202Z,19.60
2022-10-22T09:30:23.924Z,16.77
2022-10-22T09:32:55.355Z,24.48
2022-10-22T09:35:24.463Z,26.90
2022-10-22T09:37:54.578Z,20.10
2022-10-22T09:40:22.228Z,29.75
2022-10-22T09:42:49.657Z,20.92
2022-10-22T09:45:23.139Z,30.08
2022-10-22T09:48:01.625Z,28.60
2022-10-22T09:50:39.400Z,19.98
2022-10-22T09:53:12.886Z,30.98
2022-10-22T09:55:41.869Z,26.35
2022-10-22T09:58:12.950Z,28.23
2022-10-22T10:00:46.613Z,30.10
2022-10-22T10:03:19.216Z,27.02
2022-10-22T10:05:52.928Z,24.08
2022-10-22T10:08:20.187Z,27.33
2022-10-22T10:11:03.275Z,30.58
2022-10-22T10:13:50.723Z,35.55
2022-10-22T10:16:27.817Z,28.50
2022-10-22T10:19:23.427Z,33.25
2022-10-22T10:22:16.568Z,34.92
2022-10-22T10:25:32.870Z,24.83
2022-10-22T10:28:19.866Z,32.72
2022-10-22T10:31:21.227Z,30.05
2022-10-22T10:34:06.531Z,21.77
2022-10-22T10:36:33.561Z,32.60
2022-10-22T10:39:05.215Z,37.45
2022-10-22T10:41:43.422Z,26.73
2022-10-22T10:44:35.095Z,26.52
2022-10-22T10:47:47.055Z,25.25
2022-10-22T10:50:24.586Z,35.53
2022-10-22T10:53:02.347Z,27.50
2022-10-22T10:55:49.679Z,26.05
2022-10-22T10:58:32.754Z,39.03
2022-10-22T11:01:26.237Z,21.30
2022-10-22T11:04:05.245Z,28.80
2022-10-22T11:06:34.316Z,30.92
2022-10-22T11:09:05.832Z,26.95
2022-10-22T11:11:55.331Z,25.42
2022-10-22T11:14:31.921Z,27.92
2022-10-22T11:17:03.707Z,30.33
2022-10-22T11:19:57.782Z,26.95
2022-10-22T11:22:32.253Z,28.10
2022-10-22T11:25:18.837Z,38.05
2022-10-22T11:28:11.889Z,25.80
2022-10-22T11:30:41.157Z,29.12
2022-10-22T11:33:12.351Z,31.80
2022-10-22T11:35:42.893Z,32.92
2022-10-22T11:38:23.101Z,28.87
2022-10-22T11:41:01.924Z,31.35
2022-10-22T11:43:31.904Z,24.98
2022-10-22T11:46:24.602Z,21.25
2022-10-22T11:49:13.102Z,27.60
2022-10-22T11:51:41.787Z,24.87
2022-10-22T11:54:45.537Z,30.42
2022-10-22T11:57:17.747Z,46.13
2022-10-22T11:59:50.034Z,38.05
2022-10-22T12:02:36.414Z,33.10
2022-10-22T12:05:22.035Z,32.30
2022-10-22T12:08:02.217Z,35.38
2022-10-22T12:13:21.058Z,35.75
2022-10-22T12:15:49.406Z,40.88
2022-10-22T12:18:16.569Z,51.70
2022-10-22T12:20:43.447Z,53.83
2022-10-22T12:23:11.892Z,55.35
2022-10-22T12:25:39.269Z,34.17
2022-10-22T12:28:11.959Z,32.80
2022-10-22T12:30:39.347Z,25.45
2022-10-22T12:33:07.787Z,37.88
2022-10-22T12:35:43.062Z,53.45
2022-10-22T12:38:15.978Z,34.15
2022-10-22T12:40:45.976Z,26.75
2022-10-22T12:43:20.538Z,32.15
2022-10-22T12:45:48.801Z,30.33
2022-10-22T12:48:19.562Z,32.05
2022-10-22T12:53:18.347Z,36.08
2022-10-22T12:55:50.738Z,30.17
2022-10-22T12:58:20.334Z,30.73
2022-10-22T13:00:48.664Z,29.95
2022-10-22T13:03:27.527Z,28.98
2022-10-22T13:05:54.679Z,33.95
2022-10-22T13:10:56.113Z,37.25
2022-10-22T13:13:31.818Z,37.78
2022-10-22T13:16:13.791Z,39.42
2022-10-22T13:18:40.801Z,36.30
2022-10-22T13:21:22.639Z,33.22
2022-10-22T13:24:00.700Z,32.58
2022-10-22T13:26:35.620Z,41.90
2022-10-22T13:29:03.838Z,35.45
2022-10-22T13:31:33.498Z,38.20
2022-10-22T13:34:09.839Z,56.15
2022-10-22T13:36:39.018Z,28.70
2022-10-22T13:39:07.970Z,28.62
2022-10-22T13:44:10.528Z,28.08
2022-10-22T13:46:42.918Z,24.42
2022-10-22T13:49:15.873Z,37.83
2022-10-22T13:51:43.147Z,24.92
2022-10-22T13:54:17.218Z,21.20
2022-10-22T13:56:44.061Z,21.40
2022-10-22T13:59:11.201Z,30.23
2022-10-22T14:01:39.125Z,30.33
2022-10-22T14:04:08.083Z,22.40
2022-10-22T14:09:11.266Z,23.08
2022-10-22T14:11:38.157Z,29.02
2022-10-22T14:14:08.623Z,28.67
2022-10-22T14:16:37.586Z,25.92
2022-10-22T14:19:05.003Z,20.05
2022-10-22T14:21:36.729Z,27.25
2022-10-22T14:24:06.020Z,22.08
2022-10-22T14:26:35.245Z,23.90
2022-10-22T14:29:10.992Z,32.95
2022-10-22T14:34:16.565Z,19.77
2022-10-22T14:36:44.133Z,23.92
2022-10-22T14:39:12.593Z,24.42
2022-10-22T14:41:39.685Z,23.52
2022-10-22T14:44:07.618Z,19.33
2022-10-22T14:46:34.462Z,24.23
2022-10-22T14:49:01.324Z,29.52
2022-10-22T14:51:28.446Z,23.62
2022-10-22T14:53:55.293Z,24.60
2022-10-22T14:56:22.251Z,30.17
2022-10-22T14:58:49.858Z,21.98
2022-10-22T15:01:17.102Z,28.77
2022-10-22T15:03:43.977Z,23.67
2022-10-22T15:06:11.090Z,48.75
2022-10-22T15:08:38.061Z,53.60
2022-10-22T15:11:11.104Z,45.85
2022-10-22T15:13:39.275Z,36.20
2022-10-22T15:16:07.529Z,29.63
2022-10-22T15:18:34.570Z,27.20
2022-10-22T15:21:07.243Z,26.65
2022-10-22T15:23:34.136Z,27.00
2022-10-22T15:26:01.343Z,27.77
2022-10-22T15:28:28.207Z,28.60
2022-10-22T15:31:00.050Z,38.47
2022-10-22T15:33:28.525Z,29.87
2022-10-22T15:35:56.087Z,29.45
2022-10-22T15:41:05.845Z,25.30
2022-10-22T15:43:34.198Z,33.85
2022-10-22T15:46:13.541Z,30.55
2022-10-22T15:48:41.174Z,28.30
2022-10-22T15:51:18.953Z,32.58
2022-10-22T15:53:56.395Z,21.75
2022-10-22T15:56:24.726Z,29.08
2022-10-22T15:58:56.496Z,25.75
2022-10-22T16:01:24.126Z,25.67
2022-10-22T16:04:02.644Z,28.10
2022-10-22T16:06:41.356Z,29.23
2022-10-22T16:09:11.212Z,29.33
2022-10-22T16:11:39.103Z,42.60
2022-10-22T16:14:06.961Z,42.67
2022-10-22T16:16:35.481Z,51.35
2022-10-22T16:19:02.626Z,48.63
2022-10-22T16:21:29.526Z,47.92
2022-10-22T16:23:56.633Z,37.33
2022-10-22T16:26:23.542Z,37.53
2022-10-22T16:28:50.639Z,42.97
2022-10-22T16:31:19.650Z,45.53
2022-10-22T16:33:50.054Z,43.58
2022-10-22T16:36:19.241Z,33.70
2022-10-22T16:38:47.384Z,43.53
2022-10-22T16:41:22.553Z,41.55
2022-10-22T16:43:52.018Z,38.95
2022-10-22T16:46:20.668Z,34.05
2022-10-22T16:48:49.707Z,49.15
2022-10-22T16:51:20.815Z,43.08
2022-10-22T16:53:48.104Z,43.42
2022-10-22T16:56:16.249Z,46.83
2022-10-22T16:58:45.378Z,29.35
2022-10-22T17:01:14.876Z,34.90
2022-10-22T17:03:44.170Z,40.80
2022-10-22T17:06:11.952Z,40.42
2022-10-22T17:08:39.694Z,32.97
2022-10-22T17:11:07.623Z,40.55
2022-10-22T17:13:34.719Z,47.38
2022-10-22T17:16:05.885Z,50.22
2022-10-22T17:18:33.825Z,45.10
2022-10-22T17:21:00.759Z,44.47
2022-10-22T17:23:30.421Z,50.47
2022-10-22T17:25:59.669Z,43.50
2022-10-22T17:28:26.742Z,44.15
2022-10-22T17:31:07.691Z,33.38
2022-10-22T17:33:35.971Z,45.17
2022-10-22T17:36:08.965Z,36.55
2022-10-22T17:38:36.077Z,37.88
2022-10-22T17:41:04.323Z,31.67
2022-10-22T17:43:34.938Z,30.73
2022-10-22T17:46:11.158Z,31.92
2022-10-22T17:48:38.002Z,37.03
2022-10-22T17:51:09.320Z,39.13
2022-10-22T17:53:38.181Z,36.90
2022-10-22T17:56:10.188Z,43.00
2022-10-22T17:58:37.337Z,46.63
2022-10-22T18:01:04.878Z,46.17
2022-10-22T18:03:33.045Z,37.22
2022-10-22T18:06:07.519Z,39.17
2022-10-22T18:08:34.739Z,37.53
2022-10-22T18:11:06.361Z,46.28
2022-10-22T18:13:33.717Z,45.40
2022-10-22T18:16:01.058Z,35.28
2022-10-22T18:18:28.311Z,36.72
2022-10-22T18:20:55.291Z,31.08
2022-10-22T18:23:22.434Z,36.05
2022-10-22T18:25:49.462Z,40.78
2022-10-22T18:28:17.824Z,33.60
2022-10-22T18:30:46.682Z,39.78
2022-10-22T18:33:15.048Z,43.28
2022-10-22T18:35:42.158Z,45.72
2022-10-22T18:38:10.085Z,47.88
2022-10-22T18:40:44.518Z,48.47
2022-10-22T18:43:11.641Z,39.92
2022-10-22T18:45:42.961Z,44.72
2022-10-22T18:48:10.275Z,49.05
2022-10-22T18:50:37.408Z,38.78
2022-10-22T18:53:04.331Z,50.10
2022-10-22T18:55:31.206Z,44.53
2022-10-22T18:57:58.319Z,56.90
2022-10-22T19:00:26.574Z,36.33
2022-10-22T19:02:55.983Z,44.03
2022-10-22T19:05:23.109Z,43.92
2022-10-22T19:07:50.588Z,41.78
2022-10-22T19:10:17.749Z,39.35
2022-10-22T19:12:44.855Z,40.88
2022-10-22T19:15:11.729Z,48.80
2022-10-22T19:17:38.727Z,42.03
2022-10-22T19:20:06.460Z,36.17
2022-10-22T19:22:33.307Z,37.90
2022-10-22T19:25:00.156Z,36.50
2022-10-22T19:27:27.304Z,39.83
2022-10-22T19:29:54.207Z,41.92
2022-10-22T19:32:21.085Z,36.45
2022-10-22T19:34:48.188Z,39.30
2022-10-22T19:37:15.057Z,42.45
2022-10-22T19:39:41.930Z,33.60
2022-10-22T19:42:09.034Z,37.60
2022-10-22T19:44:36.016Z,37.95
2022-10-22T19:47:05.800Z,44.60
2022-10-22T19:49:33.633Z,41.05
2022-10-22T19:52:03.692Z,46.63
2022-10-22T19:54:33.402Z,41.60
2022-10-22T19:59:35.114Z,41.50
2022-10-22T20:02:03.485Z,43.30
2022-10-22T20:04:33.684Z,40.35
2022-10-22T20:07:04.345Z,42.92
2022-10-22T20:09:31.509Z,43.00
2022-10-22T20:12:00.715Z,39.80
2022-10-22T20:14:29.483Z,54.53
2022-10-22T20:16:56.619Z,47.38
2022-10-22T20:19:26.070Z,48.42
2022-10-22T20:21:52.920Z,45.60
2022-10-22T20:24:20.066Z,41.10
2022-10-22T20:26:47.023Z,37.47
2022-10-22T20:29:14.929Z,42.28
2022-10-22T20:31:42.073Z,37.10
2022-10-22T20:34:09.184Z,37.08
2022-10-22T20:36:36.045Z,42.13
2022-10-22T20:39:06.389Z,33.08
2022-10-22T20:41:34.798Z,40.35
2022-10-22T20:44:01.791Z,35.97
2022-10-22T20:46:31.238Z,36.72
2022-10-22T20:49:16.950Z,33.63
2022-10-22T20:51:44.238Z,29.12
2022-10-22T20:54:11.246Z,34.92
2022-10-22T20:56:39.522Z,33.88
2022-10-22T20:59:08.501Z,35.67
2022-10-22T21:01:44.160Z,35.45
2022-10-22T21:04:11.462Z,28.87
2022-10-22T21:06:39.058Z,29.45
2022-10-22T21:09:07.249Z,29.23
2022-10-22T21:11:35.534Z,30.00
2022-10-22T21:14:02.569Z,31.77
2022-10-22T21:16:29.583Z,25.60
2022-10-22T21:18:56.709Z,34.03
2022-10-22T21:21:23.566Z,25.90
2022-10-22T21:23:50.507Z,28.38
2022-10-22T21:26:18.894Z,32.13
2022-10-22T21:28:45.866Z,32.75
2022-10-22T21:31:21.830Z,34.30
2022-10-22T21:33:49.998Z,30.17
2022-10-22T21:36:21.628Z,29.33
2022-10-22T21:38:51.588Z,31.83
2022-10-22T21:41:20.725Z,27.30
2022-10-22T21:43:47.601Z,26.37
2022-10-22T21:46:26.730Z,30.58
2022-10-22T21:48:55.503Z,30.12
2022-10-22T21:51:23.452Z,33.05
2022-10-22T21:53:53.282Z,28.55
2022-10-22T21:56:25.537Z,30.80
2022-10-22T21:58:52.953Z,28.40
2022-10-22T22:01:20.234Z,24.87
2022-10-22T22:03:49.405Z,32.58
2022-10-22T22:06:21.167Z,26.17
2022-10-22T22:08:50.231Z,24.77
2022-10-22T22:11:27.311Z,27.50
2022-10-22T22:13:55.558Z,27.42
2022-10-22T22:16:28.950Z,29.37
2022-10-22T22:21:39.115Z,27.17
2022-10-22T22:24:06.786Z,30.23
2022-10-22T22:26:33.789Z,29.92
2022-10-22T22:29:01.141Z,28.50
2022-10-22T22:31:31.011Z,31.80
2022-10-22T22:34:02.355Z,33.00
2022-10-22T22:36:34.167Z,25.02
2022-10-22T22:39:01.103Z,38.50
2022-10-22T22:41:27.947Z,29.73
2022-10-22T22:46:26.833Z,31.62
2022-10-22T22:48:53.888Z,36.90
2022-10-22T22:51:21.069Z,29.02
2022-10-22T22:53:47.962Z,29.48
2022-10-22T22:56:23.004Z,31.67
2022-10-22T22:58:50.391Z,33.92
2022-10-22T23:01:19.598Z,28.48
2022-10-22T23:03:58.672Z,31.60
2022-10-22T23:06:27.423Z,28.90
2022-10-22T23:08:54.865Z,32.05
2022-10-22T23:11:24.150Z,30.10
2022-10-22T23:13:53.382Z,28.33
2022-10-22T23:16:21.722Z,32.83
2022-10-22T23:18:49.564Z,28.48
2022-10-22T23:21:19.547Z,33.80
2022-10-22T23:23:51.246Z,31.90
2022-10-22T23:26:20.867Z,25.12
2022-10-22T23:28:47.769Z,28.73
2022-10-22T23:31:16.132Z,26.17
2022-10-22T23:33:43.793Z,29.77
2022-10-22T23:36:10.990Z,26.83
2022-10-22T23:38:39.238Z,28.33
2022-10-22T23:41:07.234Z,30.30
2022-10-22T23:43:37.740Z,31.45
2022-10-22T23:46:07.133Z,27.13
2022-10-22T23:48:34.639Z,27.80
2022-10-22T23:51:11.258Z,30.40
2022-10-22T23:53:38.881Z,29.48
2022-10-22T23:56:08.328Z,27.92
2022-10-22T23:58:35.823Z,25.95
